Time;durP1;ratioP1;P1;durP2;ratioP2;P2;SDS_P1;SDS_P2;PMS_P1;PMS_P2;Temp;Humidity;BMP_temperature;BMP_pressure;BME280_temperature;BME280_humidity;BME280_pressure;Samples;Min_cycle;Max_cycle;Signal;HPM_P1;HPM_P2
2023/09/23 00:01:21;;;;;;;;;;;;;;;23.07;52.75;99652.31;3157434;28;19935;-65
2023/09/23 00:02:51;;;;;;;;;;;;;;;23.04;53.22;99647.31;3157629;28;19928;-64
2023/09/23 00:04:23;;;;;;;;;;;;;;;23.03;52.99;99645.66;3157722;28;19931;-65
2023/09/23 00:05:54;;;;;;;;;;;;;;;23.04;52.86;99650.81;3157443;28;19932;-64
2023/09/23 00:07:28;;;;;;;;;;;;;;;23.04;52.94;99650.81;3157661;28;19932;-65
2023/09/23 00:09:04;;;;;;;;;;;;;;;23.02;53.04;99646.66;3157600;28;19924;-65
2023/09/23 00:10:35;;;;;;;;;;;;;;;23.00;53.42;99644.13;3157860;28;19931;-64
2023/09/23 00:12:07;;;;;;;;;;;;;;;22.98;53.44;99655.88;3157675;28;20034;-64
2023/09/23 00:13:39;;;;;;;;;;;;;;;22.96;53.21;99641.94;3157439;28;19924;-65
2023/09/23 00:15:10;;;;;;;;;;;;;;;22.97;53.04;99640.94;3157121;28;20353;-64
2023/09/23 00:16:42;;;;;;;;;;;;;;;22.98;53.16;99645.25;3157830;28;19924;-65
2023/09/23 00:18:17;;;;;;;;;;;;;;;23.00;53.31;99651.28;3152461;28;20003;-64
2023/09/23 00:19:48;;;;;;;;;;;;;;;23.02;53.13;99649.31;3154138;28;20564;-64
2023/09/23 00:21:19;;;;;;;;;;;;;;;23.01;53.33;99652.94;3154011;28;20320;-64
2023/09/23 00:22:54;;;;;;;;;;;;;;;23.00;53.36;99648.63;3156940;28;19928;-64
2023/09/23 00:24:26;;;;;;;;;;;;;;;22.97;53.47;99646.25;3157555;28;20328;-65
2023/09/23 00:25:57;;;;;;;;;;;;;;;22.92;53.45;99652.84;3157488;28;21324;-65
2023/09/23 00:27:30;;;;;;;;;;;;;;;22.89;53.42;99647.84;3157465;28;19927;-65
2023/09/23 00:29:00;;;;;;;;;;;;;;;22.86;53.56;99649.94;3157647;28;20707;-64
2023/09/23 00:30:32;;;;;;;;;;;;;;;22.84;53.53;99655.41;3157453;28;19925;-64
2023/09/23 00:32:04;;;;;;;;;;;;;;;22.81;54.00;99652.25;3156962;28;20309;-65
2023/09/23 00:33:37;;;;;;;;;;;;;;;22.76;54.08;99655.34;3157394;28;20740;-68
2023/09/23 00:35:12;;;;;;;;;;;;;;;22.73;54.22;99652.16;3157520;28;19931;-68
2023/09/23 00:36:42;;;;;;;;;;;;;;;22.70;54.37;99647.97;3157500;28;20365;-68
2023/09/23 00:38:18;;;;;;;;;;;;;;;22.67;54.22;99638.50;3157411;28;19924;-68
2023/09/23 00:39:48;;;;;;;;;;;;;;;22.64;54.60;99646.75;3157374;28;19970;-67
2023/09/23 00:41:20;;;;;;;;;;;;;;;22.62;54.56;99646.06;3157329;28;19931;-66
2023/09/23 00:42:50;;;;;;;;;;;;;;;22.63;54.45;99641.63;3157673;28;19928;-66
2023/09/23 00:44:22;;;;;;;;;;;;;;;22.63;54.45;99650.41;3157545;28;20081;-66
2023/09/23 00:45:54;;;;;;;;;;;;;;;22.63;54.42;99644.25;3156805;28;19936;-66
2023/09/23 00:47:26;;;;;;;;;;;;;;;22.63;54.63;99645.09;3158164;28;19928;-66
2023/09/23 00:48:58;;;;;;;;;;;;;;;22.63;54.28;99646.91;3158905;28;20400;-67
2023/09/23 00:50:30;;;;;;;;;;;;;;;22.63;54.51;99650.41;3159850;28;19924;-66
2023/09/23 00:52:03;;;;;;;;;;;;;;;22.65;54.49;99650.25;3159825;28;19928;-66
2023/09/23 00:53:39;;;;;;;;;;;;;;;22.65;54.41;99648.41;3158807;28;19935;-66
2023/09/23 00:55:10;;;;;;;;;;;;;;;;;;3159358;28;19932;-66
2023/09/23 00:56:42;;;;;;;;;;;;;;;;;;3160206;28;19994;-67
2023/09/23 00:58:14;;;;;;;;;;;;;;;22.67;54.16;99646.44;3159870;28;19931;-65
2023/09/23 00:59:46;;;;;;;;;;;;;;;22.65;54.26;99645.75;3158900;28;19928;-68
2023/09/23 01:01:18;;;;;;;;;;;;;;;22.63;54.38;99644.25;3159443;28;19931;-67
2023/09/23 01:02:48;;;;;;;;;;;;;;;22.61;54.23;99643.56;3159684;28;19939;-68
2023/09/23 01:04:20;;;;;;;;;;;;;;;22.61;54.31;99651.53;3159417;28;19935;-68
2023/09/23 01:06:11;;;;;;;;;;;;;;;22.56;54.44;99656.44;3159762;28;19983;-68
2023/09/23 01:07:45;;;;;;;;;;;;;;;22.48;54.98;99654.56;3159279;28;19924;-68
2023/09/23 01:09:20;;;;;;;;;;;;;;;22.43;55.06;99649.69;3159629;28;19928;-67
2023/09/23 01:10:51;;;;;;;;;;;;;;;22.35;55.66;99654.91;3159443;28;19938;-68
2023/09/23 01:12:23;;;;;;;;;;;;;;;22.30;55.82;99651.00;3159606;28;20344;-68
2023/09/23 01:13:54;;;;;;;;;;;;;;;22.26;55.79;99653.13;3159742;28;19981;-68
2023/09/23 01:15:27;;;;;;;;;;;;;;;22.22;55.95;99651.78;3159130;28;19935;-67
2023/09/23 01:16:59;;;;;;;;;;;;;;;22.15;56.35;99646.16;3147541;28;19935;-68
2023/09/23 01:18:29;;;;;;;;;;;;;;;22.10;56.51;99647.63;3159469;28;19924;-68
2023/09/23 01:20:01;;;;;;;;;;;;;;;22.09;56.61;99653.88;3159283;28;19984;-68
2023/09/23 01:21:33;;;;;;;;;;;;;;;22.06;56.94;99651.53;3160427;28;19924;-68
2023/09/23 01:23:05;;;;;;;;;;;;;;;22.00;57.04;99653.78;3162323;28;19928;-68
2023/09/23 01:24:36;;;;;;;;;;;;;;;21.97;57.12;99662.03;3159289;28;20007;-68
2023/09/23 01:26:11;;;;;;;;;;;;;;;21.95;56.93;99655.22;3159219;28;20485;-68
2023/09/23 01:27:43;;;;;;;;;;;;;;;21.92;57.24;99653.69;3158808;28;20420;-69
2023/09/23 01:29:14;;;;;;;;;;;;;;;21.92;56.96;99661.66;3158998;28;19924;-68
2023/09/23 01:30:45;;;;;;;;;;;;;;;21.92;57.04;99666.94;3159022;28;19924;-68
2023/09/23 01:32:25;;;;;;;;;;;;;;;21.90;57.00;99660.94;3159569;28;19924;-69
2023/09/23 01:33:56;;;;;;;;;;;;;;;21.85;57.35;99660.53;3159009;28;19928;-68
2023/09/23 01:35:28;;;;;;;;;;;;;;;21.81;57.37;99659.16;3159430;28;20054;-67
2023/09/23 01:36:59;;;;;;;;;;;;;;;21.80;57.47;99660.97;3159124;28;19928;-67
2023/09/23 01:38:32;;;;;;;;;;;;;;;21.82;57.27;99655.53;3159302;28;20441;-67
2023/09/23 01:40:03;;;;;;;;;;;;;;;21.84;57.14;99655.41;3159087;28;19977;-68
2023/09/23 01:41:36;;;;;;;;;;;;;;;21.84;56.94;99658.88;3158871;28;19928;-67
2023/09/23 01:43:09;;;;;;;;;;;;;;;21.85;57.14;99657.88;3158981;28;20034;-67
2023/09/23 01:44:41;;;;;;;;;;;;;;;21.89;56.90;99661.06;3159206;28;19928;-67
2023/09/23 01:46:11;;;;;;;;;;;;;;;21.90;56.70;99655.63;3158801;28;19924;-66
2023/09/23 01:47:43;;;;;;;;;;;;;;;21.92;56.64;99661.66;3158151;28;20428;-67
2023/09/23 01:49:16;;;;;;;;;;;;;;;21.92;56.70;99666.94;3158883;28;19928;-67
2023/09/23 01:50:49;;;;;;;;;;;;;;;21.93;56.44;99663.31;3159023;28;20361;-67
2023/09/23 01:52:19;;;;;;;;;;;;;;;21.93;56.40;99665.94;3159198;28;19974;-65
2023/09/23 01:53:53;;;;;;;;;;;;;;;21.93;56.39;99660.66;3149021;28;19928;-65
2023/09/23 01:55:24;;;;;;;;;;;;;;;21.93;56.38;99667.78;3155889;28;19951;-65
2023/09/23 01:56:56;;;;;;;;;;;;;;;21.89;56.73;99667.25;3159047;28;19935;-65
2023/09/23 01:58:28;;;;;;;;;;;;;;;21.89;56.58;99669.03;3158405;28;19927;-65
2023/09/23 01:59:59;;;;;;;;;;;;;;;21.86;56.76;99667.53;3157472;28;20428;-65
2023/09/23 02:01:30;;;;;;;;;;;;;;;21.88;56.51;99667.38;3153527;28;19935;-64
2023/09/23 02:03:01;;;;;;;;;;;;;;;21.89;56.55;99661.94;3159244;28;19947;-65
2023/09/23 02:04:33;;;;;;;;;;;;;;;21.90;56.66;99663.59;3158892;28;19923;-65
2023/09/23 02:06:05;;;;;;;;;;;;;;;21.90;56.64;99668.06;3158657;28;19930;-65
2023/09/23 02:07:35;;;;;;;;;;;;;;;21.90;56.35;99668.91;3158791;28;20398;-64
2023/09/23 02:09:09;;;;;;;;;;;;;;;21.88;56.67;99662.91;3158934;28;19928;-64
2023/09/23 02:10:43;;;;;;;;;;;;;;;21.87;56.54;99663.88;3159184;28;19927;-65
2023/09/23 02:12:14;;;;;;;;;;;;;;;21.84;56.76;99658.88;3158808;28;19934;-65
2023/09/23 02:13:47;;;;;;;;;;;;;;;21.82;56.71;99663.47;3158886;28;20474;-64
2023/09/23 02:15:17;;;;;;;;;;;;;;;21.80;56.78;99660.97;3158409;28;19971;-64
2023/09/23 02:16:49;;;;;;;;;;;;;;;21.79;56.87;99658.47;3147966;28;20314;-64
2023/09/23 02:18:21;;;;;;;;;;;;;;;21.79;56.83;99658.47;3156957;28;19931;-65
2023/09/23 02:19:53;;;;;;;;;;;;;;;21.76;56.77;99664.88;3158703;28;20007;-65
2023/09/23 02:21:27;;;;;;;;;;;;;;;21.74;56.92;99664.22;3158696;28;19931;-65
2023/09/23 02:22:58;;;;;;;;;;;;;;;21.72;56.99;99660.03;3161027;28;19954;-65
2023/09/23 02:24:31;;;;;;;;;;;;;;;21.73;56.76;99661.69;3153554;28;19989;-65
2023/09/23 02:26:03;;;;;;;;;;;;;;;21.71;56.94;99659.22;3153722;28;20005;-66
2023/09/23 02:27:34;;;;;;;;;;;;;;;21.72;56.84;99660.03;3153307;28;20063;-66
2023/09/23 02:29:07;;;;;;;;;;;;;;;21.72;56.98;99660.03;3153487;28;20015;-66
2023/09/23 02:30:38;;;;;;;;;;;;;;;21.70;56.95;99668.13;3152701;28;20381;-67
2023/09/23 02:32:09;;;;;;;;;;;;;;;21.69;57.01;99662.97;3153264;28;19974;-66
2023/09/23 02:33:40;;;;;;;;;;;;;;;21.70;56.80;99667.28;3153592;28;19993;-66
2023/09/23 02:35:13;;;;;;;;;;;;;;;21.71;56.98;99664.50;3153252;28;20024;-65
2023/09/23 02:36:45;;;;;;;;;;;;;;;21.71;56.90;99661.00;3153401;28;19928;-65
2023/09/23 02:38:16;;;;;;;;;;;;;;;21.69;56.93;99668.28;3153531;28;19928;-65
2023/09/23 02:39:48;;;;;;;;;;;;;;;21.64;57.14;99666.03;3152824;28;20436;-66
2023/09/23 02:41:22;;;;;;;;;;;;;;;21.57;57.17;99671.09;3152869;28;20042;-66
2023/09/23 02:42:53;;;;;;;;;;;;;;;21.50;57.23;99667.34;3153535;28;20644;-66
2023/09/23 02:44:25;;;;;;;;;;;;;;;21.46;57.61;99665.94;3152982;28;20495;-66
2023/09/23 02:45:56;;;;;;;;;;;;;;;21.41;57.40;99659.41;3152816;28;19928;-66
2023/09/23 02:47:28;;;;;;;;;;;;;;;21.41;57.55;99668.19;3153230;28;19939;-65
2023/09/23 02:48:59;;;;;;;;;;;;;;;21.41;57.59;99662.88;3153065;28;20297;-65
2023/09/23 02:50:31;;;;;;;;;;;;;;;21.41;57.67;99668.19;3152988;28;19928;-65
2023/09/23 02:52:01;;;;;;;;;;;;;;;21.39;57.46;99670.16;3153109;28;19939;-65
2023/09/23 02:53:33;;;;;;;;;;;;;;;21.36;57.63;99670.44;3152355;28;19999;-65
2023/09/23 02:55:07;;;;;;;;;;;;;;;21.33;57.88;99670.69;3153244;28;19952;-65
2023/09/23 02:56:39;;;;;;;;;;;;;;;21.33;57.91;99676.00;3153109;28;20053;-65
2023/09/23 02:58:10;;;;;;;;;;;;;;;21.36;57.69;99673.09;3152803;28;19972;-66
2023/09/23 02:59:42;;;;;;;;;;;;;;;21.37;57.81;99681.84;3152820;28;19935;-65
2023/09/23 03:01:14;;;;;;;;;;;;;;;21.35;57.78;99676.66;3150881;28;19928;-65
2023/09/23 03:02:48;;;;;;;;;;;;;;;21.38;57.83;99676.41;3152987;28;19932;-66
2023/09/23 03:04:20;;;;;;;;;;;;;;;21.39;57.76;99670.16;3153088;28;20012;-65
2023/09/23 03:05:55;;;;;;;;;;;;;;;21.41;57.59;99672.63;3153034;28;19928;-65
2023/09/23 03:07:32;;;;;;;;;;;;;;;21.41;57.42;99678.78;3152832;28;19927;-65
2023/09/23 03:09:08;;;;;;;;;;;;;;;21.41;57.45;99683.25;3153142;28;19928;-65
2023/09/23 03:10:41;;;;;;;;;;;;;;;21.41;57.54;99677.94;3152718;28;19928;-65
2023/09/23 03:12:15;;;;;;;;;;;;;;;21.41;57.64;99680.59;3152864;28;20006;-65
2023/09/23 03:13:45;;;;;;;;;;;;;;;21.40;57.75;99674.47;3153020;28;19932;-65
2023/09/23 03:15:20;;;;;;;;;;;;;;;21.41;57.56;99677.94;3152491;28;20282;-66
2023/09/23 03:16:53;;;;;;;;;;;;;;;21.39;57.75;99686.03;3141833;28;20456;-66
2023/09/23 03:18:28;;;;;;;;;;;;;;;21.38;57.61;99688.81;3152091;28;19928;-65
2023/09/23 03:20:00;;;;;;;;;;;;;;;21.30;57.81;99678.91;3152744;28;19927;-65
2023/09/23 03:21:30;;;;;;;;;;;;;;;21.33;57.84;99684.75;3153226;28;19935;-65
2023/09/23 03:23:03;;;;;;;;;;;;;;;21.31;57.91;99686.72;3155591;28;19928;-67
2023/09/23 03:24:34;;;;;;;;;;;;;;;21.32;57.99;99690.19;3153072;28;19935;-67
2023/09/23 03:26:08;;;;;;;;;;;;;;;21.32;57.91;99693.66;3152248;28;20397;-66
2023/09/23 03:27:39;;;;;;;;;;;;;;;21.29;58.08;99696.59;3152323;28;19954;-65
2023/09/23 03:29:12;;;;;;;;;;;;;;;21.27;57.97;99693.28;3152539;28;20019;-66
2023/09/23 03:30:43;;;;;;;;;;;;;;;21.26;58.31;99701.34;3152003;28;19928;-66
2023/09/23 03:32:15;;;;;;;;;;;;;;;21.24;58.26;99708.63;3152173;28;20035;-65
2023/09/23 03:33:46;;;;;;;;;;;;;;;21.21;58.49;99695.63;3152251;28;19928;-65
2023/09/23 03:35:22;;;;;;;;;;;;;;;21.17;58.53;99702.19;3152627;28;20042;-66
2023/09/23 03:36:53;;;;;;;;;;;;;;;21.14;58.56;99701.47;3148886;28;19932;-66
2023/09/23 03:38:25;;;;;;;;;;;;;;;21.11;58.90;99706.22;3146888;28;20141;-65
2023/09/23 03:39:56;;;;;;;;;;;;;;;21.06;59.07;99705.78;3152260;28;19938;-65
2023/09/23 03:41:29;;;;;;;;;;;;;;;21.03;59.09;99700.78;3152609;28;19928;-64
2023/09/23 03:43:01;;;;;;;;;;;;;;;21.02;59.00;99704.41;3152808;28;19928;-65
2023/09/23 03:44:35;;;;;;;;;;;;;;;21.03;59.15;99706.94;3152634;28;20253;-65
2023/09/23 03:46:11;;;;;;;;;;;;;;;21.03;59.05;99698.13;3152525;28;20362;-64
2023/09/23 03:47:42;;;;;;;;;;;;;;;21.02;59.31;99705.25;3152417;28;19928;-64
2023/09/23 03:49:13;;;;;;;;;;;;;;;21.01;59.23;99708.03;3152455;28;20453;-65
2023/09/23 03:50:45;;;;;;;;;;;;;;;21.03;59.20;99717.53;3152522;28;19976;-64
2023/09/23 03:52:15;;;;;;;;;;;;;;;21.05;59.17;99718.19;3152376;28;20389;-63
2023/09/23 03:53:51;;;;;;;;;;;;;;;21.07;58.93;99718.91;3148096;28;19986;-66
2023/09/23 03:55:21;;;;;;;;;;;;;;;21.09;58.83;99716.97;3140137;28;19928;-66
2023/09/23 03:56:54;;;;;;;;;;;;;;;21.10;58.75;99721.28;3151812;28;19936;-68
2023/09/23 03:58:26;;;;;;;;;;;;;;;21.11;58.98;99720.28;3152536;28;19935;-68
2023/09/23 03:59:58;;;;;;;;;;;;;;;21.10;58.78;99709.84;3151661;28;19978;-69
2023/09/23 04:01:28;;;;;;;;;;;;;;;21.10;58.92;99713.34;3152123;28;19975;-71
2023/09/23 04:03:00;;;;;;;;;;;;;;;21.11;59.10;99719.47;3152404;28;19963;-71
2023/09/23 04:04:31;;;;;;;;;;;;;;;21.11;58.85;99720.28;3150051;28;19981;-67
2023/09/23 04:06:05;;;;;;;;;;;;;;;21.12;58.75;99718.50;3142472;28;20000;-68
2023/09/23 04:07:36;;;;;;;;;;;;;;;21.12;58.87;99727.28;3152050;28;20398;-67
2023/09/23 04:09:10;;;;;;;;;;;;;;;21.10;59.03;99729.22;3152688;28;19939;-71
2023/09/23 04:10:40;;;;;;;;;;;;;;;21.10;58.98;99729.22;3152728;28;19928;-69
2023/09/23 04:12:13;;;;;;;;;;;;;;;21.10;58.82;99726.56;3150287;28;19939;-70
2023/09/23 04:13:46;;;;;;;;;;;;;;;21.12;58.97;99723.81;3151382;28;19993;-70
2023/09/23 04:15:19;;;;;;;;;;;;;;;21.13;58.94;99733.41;3142664;28;19928;-70
2023/09/23 04:16:50;;;;;;;;;;;;;;;21.15;58.89;99723.53;3150918;28;19950;-70
2023/09/23 04:18:21;;;;;;;;;;;;;;;21.18;58.76;99722.38;3150576;28;19928;-70
2023/09/23 04:19:54;;;;;;;;;;;;;;;21.21;58.86;99732.69;3150342;28;19928;-70
2023/09/23 04:21:25;;;;;;;;;;;;;;;21.23;58.78;99723.63;3150143;28;19944;-69
2023/09/23 04:22:56;;;;;;;;;;;;;;;21.25;59.00;99726.16;3155104;28;19928;-76
2023/09/23 04:24:27;;;;;;;;;;;;;;;21.22;58.78;99731.75;3152256;28;19928;-75
2023/09/23 04:25:59;;;;;;;;;;;;;;;21.21;59.10;99733.56;3154624;28;20522;-71
2023/09/23 04:27:32;;;;;;;;;;;;;;;21.20;59.22;99733.69;3154210;28;19939;-75
2023/09/23 04:29:04;;;;;;;;;;;;;;;21.15;59.19;99734.13;3154609;28;19928;-73
2023/09/23 04:30:35;;;;;;;;;;;;;;;21.12;59.50;99735.22;3153695;28;20019;-73
2023/09/23 04:32:07;;;;;;;;;;;;;;;21.08;59.59;99732.97;3149856;28;20328;-72
2023/09/23 04:33:37;;;;;;;;;;;;;;;21.03;59.81;99736.06;3153948;28;20533;-74
2023/09/23 04:35:09;;;;;;;;;;;;;;;21.01;59.71;99730.06;3154473;28;19932;-71
2023/09/23 04:36:40;;;;;;;;;;;;;;;20.98;59.82;99734.78;3154505;28;19928;-75
2023/09/23 04:38:12;;;;;;;;;;;;;;;20.94;60.17;99730.72;3154167;28;20389;-74
2023/09/23 04:39:42;;;;;;;;;;;;;;;20.90;60.14;99740.75;3154310;28;19947;-72
2023/09/23 04:41:14;;;;;;;;;;;;;;;20.86;60.26;99737.56;3154270;28;19994;-72
2023/09/23 04:42:48;;;;;;;;;;;;;;;20.82;60.45;99740.59;3142256;28;20153;-70
2023/09/23 04:44:20;;;;;;;;;;;;;;;20.81;60.39;99745.06;3156089;28;19971;-67
2023/09/23 04:45:51;;;;;;;;;;;;;;;20.79;60.60;99741.72;3156781;28;19981;-69
2023/09/23 04:47:23;;;;;;;;;;;;;;;20.73;61.08;99742.25;3154460;28;19982;-69
2023/09/23 04:48:55;;;;;;;;;;;;;;;20.67;61.25;99750.72;3154192;28;19981;-72
2023/09/23 04:50:27;;;;;;;;;;;;;;;20.60;61.61;99750.44;3154695;28;19927;-69
2023/09/23 04:51:59;;;;;;;;;;;;;;;20.60;61.52;99745.16;3153925;28;19928;-72
2023/09/23 04:53:29;;;;;;;;;;;;;;;20.64;61.51;99743.91;3147060;28;20416;-68
2023/09/23 04:55:01;;;;;;;;;;;;;;;20.67;61.33;99745.44;3150377;28;19928;-73
2023/09/23 04:56:32;;;;;;;;;;;;;;;20.70;61.41;99744.34;3154444;28;19928;-71
2023/09/23 04:58:06;;;;;;;;;;;;;;;20.70;61.29;99746.97;3154327;28;19928;-70
2023/09/23 04:59:36;;;;;;;;;;;;;;;20.71;61.31;99746.03;3154114;28;20745;-71
2023/09/23 05:01:09;;;;;;;;;;;;;;;20.71;61.37;99743.38;3153507;28;19928;-70
2023/09/23 05:02:40;;;;;;;;;;;;;;;20.71;61.41;99743.38;3154371;28;19928;-71
2023/09/23 05:04:12;;;;;;;;;;;;;;;20.71;61.13;99744.22;3154187;28;19928;-68
2023/09/23 05:05:43;;;;;;;;;;;;;;;20.76;61.21;99746.44;3154002;28;19928;-68
2023/09/23 05:07:14;;;;;;;;;;;;;;;20.81;60.82;99744.22;3154152;28;19928;-71
2023/09/23 05:08:45;;;;;;;;;;;;;;;20.84;60.85;99754.53;3154458;28;19928;-67
2023/09/23 05:10:18;;;;;;;;;;;;;;;20.87;60.62;99747.16;3154595;28;19936;-67
2023/09/23 05:11:51;;;;;;;;;;;;;;;20.93;60.72;99747.59;3153930;28;19928;-65
2023/09/23 05:13:24;;;;;;;;;;;;;;;20.96;60.52;99755.25;3153854;28;19939;-65
2023/09/23 05:14:57;;;;;;;;;;;;;;;21.00;60.50;99754.00;3154155;28;20325;-69
2023/09/23 05:16:28;;;;;;;;;;;;;;;21.03;60.41;99759.03;3146735;28;19929;-65
2023/09/23 05:18:00;;;;;;;;;;;;;;;21.03;60.50;99761.66;3149531;28;19985;-66
2023/09/23 05:19:32;;;;;;;;;;;;;;;21.01;60.52;99758.34;3154189;28;19931;-70
2023/09/23 05:21:04;;;;;;;;;;;;;;;20.96;60.97;99758.75;3154004;28;19935;-66
2023/09/23 05:22:35;;;;;;;;;;;;;;;20.93;61.41;99769.59;3157548;28;20416;-72
2023/09/23 05:24:09;;;;;;;;;;;;;;;20.89;61.72;99768.22;3153842;28;19928;-73
2023/09/23 05:25:41;;;;;;;;;;;;;;;20.83;62.15;99772.25;3153737;28;19939;-69
2023/09/23 05:27:12;;;;;;;;;;;;;;;20.79;62.50;99780.56;3153808;28;19936;-72
2023/09/23 05:28:45;;;;;;;;;;;;;;;20.76;62.92;99786.13;3154250;28;19985;-69
2023/09/23 05:30:15;;;;;;;;;;;;;;;20.75;62.82;99782.66;3153163;28;20245;-70
2023/09/23 05:31:47;;;;;;;;;;;;;;;20.76;62.73;99780.84;3153478;28;19935;-71
2023/09/23 05:33:19;;;;;;;;;;;;;;;20.73;63.16;99781.13;3150858;28;20504;-68
2023/09/23 05:34:52;;;;;;;;;;;;;;;20.68;63.17;99779.72;3149912;28;19971;-71
2023/09/23 05:36:23;;;;;;;;;;;;;;;20.74;63.27;99778.34;3145004;28;19993;-70
2023/09/23 05:37:55;;;;;;;;;;;;;;;20.80;62.94;99783.09;3146424;28;19985;-65
2023/09/23 05:39:25;;;;;;;;;;;;;;;20.88;62.55;99782.41;3146061;28;19979;-71
2023/09/23 05:40:57;;;;;;;;;;;;;;;20.95;62.35;99785.38;3126886;28;19929;-68
2023/09/23 05:42:30;;;;;;;;;;;;;;;21.01;62.03;99788.28;3121804;28;19987;-70
2023/09/23 05:44:03;;;;;;;;;;;;;;;21.08;61.75;99788.59;3126110;28;20066;-69
2023/09/23 05:45:35;;;;;;;;;;;;;;;21.13;61.50;99784.56;3125487;28;19973;-70
2023/09/23 05:47:07;;;;;;;;;;;;;;;21.22;61.56;99790.84;3128502;28;19978;-66
2023/09/23 05:48:37;;;;;;;;;;;;;;;21.24;61.48;99788.06;3128881;28;19928;-66
2023/09/23 05:50:12;;;;;;;;;;;;;;;21.28;61.29;99786.81;3128982;28;19929;-67
2023/09/23 05:51:44;;;;;;;;;;;;;;;21.33;61.10;99789.88;3125295;28;19959;-67
2023/09/23 05:53:14;;;;;;;;;;;;;;;21.41;60.95;99779.44;3134140;28;19948;-67
2023/09/23 05:54:48;;;;;;;;;;;;;;;21.46;61.03;99782.50;3133773;28;19936;-67
2023/09/23 05:56:18;;;;;;;;;;;;;;;21.54;60.90;99784.47;3121435;28;19954;-68
2023/09/23 05:57:50;;;;;;;;;;;;;;;21.61;60.70;99782.09;3128960;28;20394;-70
2023/09/23 05:59:22;;;;;;;;;;;;;;;21.68;60.65;99785.84;3128805;28;20362;-72
2023/09/23 06:00:53;;;;;;;;;;;;;;;21.77;60.16;99791.16;3128344;28;19929;-72
2023/09/23 06:02:24;;;;;;;;;;;;;;;21.81;60.20;99786.41;3129245;28;19936;-70
2023/09/23 06:03:58;;;;;;;;;;;;;;;21.86;59.92;99783.31;3121613;28;19972;-70
2023/09/23 06:05:28;;;;;;;;;;;;;;;21.93;59.89;99790.56;3128615;28;19928;-73
2023/09/23 06:07:00;;;;;;;;;;;;;;;21.97;59.88;99786.63;3128071;28;19933;-78
2023/09/23 06:08:31;;;;;;;;;;;;;;;21.98;60.09;99788.34;3119970;28;19929;-71
2023/09/23 06:10:04;;;;;;;;;;;;;;;22.03;59.91;99791.38;3128650;28;20702;-74
2023/09/23 06:11:37;;;;;;;;;;;;;;;22.08;59.86;99790.13;3128653;28;19940;-71
2023/09/23 06:13:07;;;;;;;;;;;;;;;22.12;59.31;99792.31;3128822;28;19928;-73
2023/09/23 06:14:40;;;;;;;;;;;;;;;22.18;59.46;99783.00;3128607;28;20043;-72
2023/09/23 06:16:12;;;;;;;;;;;;;;;22.31;58.95;99791.47;3128286;28;20322;-67
2023/09/23 06:17:43;;;;;;;;;;;;;;;22.41;58.71;99778.16;3116468;28;20386;-67
2023/09/23 06:19:15;;;;;;;;;;;;;;;22.52;58.55;99785.13;3128075;28;19929;-67
2023/09/23 06:20:46;;;;;;;;;;;;;;;22.65;58.24;99788.25;3128353;28;20405;-67
2023/09/23 06:22:17;;;;;;;;;;;;;;;22.74;58.04;99789.19;3135690;28;19929;-67
2023/09/23 06:23:48;;;;;;;;;;;;;;;22.79;58.27;99778.97;3132168;28;19936;-69
2023/09/23 06:25:20;;;;;;;;;;;;;;;22.98;57.97;99780.69;3127945;28;20779;-73
2023/09/23 06:26:51;;;;;;;;;;;;;;;23.09;57.73;99788.47;3128676;28;19929;-67
2023/09/23 06:28:22;;;;;;;;;;;;;;;23.21;57.65;99786.44;3128855;28;20399;-68
2023/09/23 06:29:54;;;;;;;;;;;;;;;23.36;57.12;99784.91;3128490;28;20347;-71
2023/09/23 06:31:26;;;;;;;;;;;;;;;23.50;56.96;99778.22;3127582;28;20008;-70
2023/09/23 06:32:56;;;;;;;;;;;;;;;23.68;56.70;99779.03;3128311;28;20058;-69
2023/09/23 06:34:28;;;;;;;;;;;;;;;23.90;56.96;99776.91;3128191;28;19956;-69
2023/09/23 06:36:01;;;;;;;;;;;;;;;24.12;56.66;99778.22;3128528;28;19928;-68
2023/09/23 06:37:32;;;;;;;;;;;;;;;24.36;56.01;99785.50;3128479;28;19929;-68
2023/09/23 06:39:03;;;;;;;;;;;;;;;24.67;55.74;99788.53;3128180;28;20006;-68
2023/09/23 06:40:35;;;;;;;;;;;;;;;24.92;55.43;99784.09;3147537;28;20263;-68
2023/09/23 06:42:05;;;;;;;;;;;;;;;25.21;54.86;99790.88;3153431;28;19992;-67
2023/09/23 06:43:37;;;;;;;;;;;;;;;25.54;54.27;99795.22;3152905;28;20589;-73
2023/09/23 06:45:09;;;;;;;;;;;;;;;25.85;53.76;99791.91;3152450;28;19932;-72
2023/09/23 06:46:41;;;;;;;;;;;;;;;26.08;53.53;99792.06;3153556;28;19939;-75
2023/09/23 06:48:12;;;;;;;;;;;;;;;26.24;52.73;99793.88;3153035;28;20011;-75
2023/09/23 06:49:43;;;;;;;;;;;;;;;26.50;52.38;99797.16;3153237;28;19928;-74
2023/09/23 06:51:14;;;;;;;;;;;;;;;26.73;51.71;99788.38;3152912;28;19931;-77
2023/09/23 06:52:45;;;;;;;;;;;;;;;26.88;51.36;99789.31;3151269;28;20313;-74
2023/09/23 06:54:17;;;;;;;;;;;;;;;26.94;50.74;99791.28;3147381;28;19984;-73
2023/09/23 06:55:48;;;;;;;;;;;;;;;26.90;50.28;99792.63;3153260;28;19928;-73
2023/09/23 06:57:19;;;;;;;;;;;;;;;26.92;49.74;99790.63;3153071;28;19928;-74
2023/09/23 06:58:50;;;;;;;;;;;;;;;26.98;49.83;99797.13;3153241;28;19928;-73
2023/09/23 07:00:24;;;;;;;;;;;;;;;27.14;49.83;99797.00;3152807;28;19928;-71
2023/09/23 07:01:55;;;;;;;;;;;;;;;27.36;49.40;99797.22;3152293;28;20034;-71
2023/09/23 07:03:26;;;;;;;;;;;;;;;27.53;48.67;99800.63;3153024;28;19928;-71
2023/09/23 07:04:57;;;;;;;;;;;;;;;27.72;48.22;99805.50;3152834;28;19985;-71
2023/09/23 07:06:28;;;;;;;;;;;;;;;27.95;47.73;99801.97;3153152;28;20378;-71
2023/09/23 07:08:00;;;;;;;;;;;;;;;28.27;47.70;99807.00;3152957;28;19928;-71
2023/09/23 07:09:31;;;;;;;;;;;;;;;28.52;46.83;99809.44;3152835;28;19935;-71
2023/09/23 07:11:02;;;;;;;;;;;;;;;28.79;46.73;99806.09;3148906;28;19985;-76
2023/09/23 07:12:33;;;;;;;;;;;;;;;29.17;46.04;99813.97;3143971;28;19963;-73
2023/09/23 07:14:05;;;;;;;;;;;;;;;29.49;45.60;99814.53;3152665;28;19951;-77
2023/09/23 07:15:38;;;;;;;;;;;;;;;29.60;44.56;99819.34;3151866;28;20010;-72
2023/09/23 07:17:09;;;;;;;;;;;;;;;29.72;44.37;99821.56;3141225;28;19940;-70
2023/09/23 07:18:41;;;;;;;;;;;;;;;29.98;44.14;99826.31;3153148;28;19932;-71
2023/09/23 07:20:19;;;;;;;;;;;;;;;30.33;43.59;99825.34;3145008;28;19932;-69
2023/09/23 07:21:49;;;;;;;;;;;;;;;30.31;42.94;99824.72;3150613;28;20317;-73
2023/09/23 07:23:21;;;;;;;;;;;;;;;30.19;43.02;99825.44;3143494;28;19932;-71
2023/09/23 07:24:51;;;;;;;;;;;;;;;30.10;43.15;99822.88;3143094;28;19997;-67
2023/09/23 07:26:23;;;;;;;;;;;;;;;30.30;43.20;99820.38;3144149;28;19928;-69
2023/09/23 07:27:54;;;;;;;;;;;;;;;30.68;42.77;99827.22;3145240;28;20449;-70
2023/09/23 07:29:26;;;;;;;;;;;;;;;31.13;42.41;99816.88;3152337;28;20052;-69
2023/09/23 07:30:58;;;;;;;;;;;;;;;31.35;41.16;99822.94;3151699;28;19932;-68
2023/09/23 07:32:29;;;;;;;;;;;;;;;31.43;40.45;99820.88;3152823;28;19928;-68
2023/09/23 07:34:00;;;;;;;;;;;;;;;31.58;40.02;99822.56;3152484;28;19928;-69
2023/09/23 07:35:32;;;;;;;;;;;;;;;31.75;39.96;99817.63;3152897;28;19932;-68
2023/09/23 07:37:03;;;;;;;;;;;;;;;31.78;39.42;99817.19;3152849;28;19975;-68
2023/09/23 07:38:35;;;;;;;;;;;;;;;31.80;39.26;99825.88;3153055;28;19947;-68
2023/09/23 07:40:06;;;;;;;;;;;;;;;31.92;39.19;99825.09;3140235;28;19928;-68
2023/09/23 07:41:37;;;;;;;;;;;;;;;32.00;38.66;99817.81;3152260;28;19940;-68
2023/09/23 07:43:09;;;;;;;;;;;;;;;32.12;38.40;99819.69;3152591;28;20007;-68
2023/09/23 07:44:40;;;;;;;;;;;;;;;32.25;38.31;99818.84;3153120;28;19928;-68
2023/09/23 07:46:13;;;;;;;;;;;;;;;32.59;38.29;99815.03;3152294;28;19932;-68
2023/09/23 07:47:43;;;;;;;;;;;;;;;33.07;37.88;99809.28;3152529;28;20672;-68
2023/09/23 07:49:15;;;;;;;;;;;;;;;33.52;37.11;99806.53;3152820;28;20069;-68
2023/09/23 07:50:46;;;;;;;;;;;;;;;33.78;36.78;99807.38;3152616;28;19938;-69
2023/09/23 07:52:17;;;;;;;;;;;;;;;34.16;36.46;99807.22;3152765;28;19928;-68
2023/09/23 07:53:48;;;;;;;;;;;;;;;34.44;35.47;99805.91;3149032;28;19928;-69
2023/09/23 07:55:20;;;;;;;;;;;;;;;34.36;34.85;99809.72;3152524;28;19996;-68
2023/09/23 07:56:51;;;;;;;;;;;;;;;34.27;34.69;99811.06;3151762;28;20072;-69
2023/09/23 07:58:22;;;;;;;;;;;;;;;34.28;34.99;99806.50;3152709;28;19928;-68
2023/09/23 07:59:53;;;;;;;;;;;;;;;34.29;34.39;99805.47;3152329;28;19989;-68